Terminal Aerodrome Forecast
Issued by NWS Des Moines, IA

Home | Current Version | Previous Version | Text Only | Print | Product List | Glossary On
Versions: 1 2 3 4 5 6 7 8 9 10 11 12 13 14
000
FTUS43 KDMX 191124
TAFALO
TAF
KALO 191124Z 1912/2012 VRB03KT 1/4SM FG VV002
     FM191400 14005KT 2SM BR BKN003
      TEMPO 1914/1915 1/2SM FG VV002
     FM191600 15010KT P6SM SCT200
     FM200800 15009KT P6SM SCT045 BKN090=

USA.gov is the U.S. government's official web portal to all federal, state and local government web resources and services.